Time;durP1;ratioP1;P1;durP2;ratioP2;P2;SDS_P1;SDS_P2;PMS_P1;PMS_P2;Temp;Humidity;BMP_temperature;BMP_pressure;BME280_temperature;BME280_humidity;BME280_pressure;Samples;Min_cycle;Max_cycle;Signal;HPM_P1;HPM_P2
2024/01/13 00:01:05;;;;;;;;;;;;;;;6.00;43.26;100581.31;4475673;32;32967;-70
2024/01/13 00:03:32;;;;;;;;;;;;;;;6.04;42.99;100592.75;4455564;32;32969;-71
2024/01/13 00:06:00;;;;;;;;;;;;;;;6.09;42.74;100591.41;4482160;32;34204;-73
2024/01/13 00:08:27;;;;;;;;;;;;;;;6.61;41.96;100590.13;4473900;32;34173;-71
2024/01/13 00:11:04;;;;;;;;;;;;;;;6.60;41.56;100592.59;4470739;32;33585;-71
2024/01/13 00:13:32;;;;;;;;;;;;;;;6.53;41.84;100596.41;4481309;32;34200;-71
2024/01/13 00:16:00;;;;;;;;;;;;;;;6.67;41.45;100584.53;4462899;32;34155;-72
2024/01/13 00:18:27;;;;;;;;;;;;;;;6.59;41.78;100585.66;4481918;32;34143;-72
2024/01/13 00:21:06;;;;;;;;;;;;;;;7.00;40.56;100583.50;4474426;32;33211;-70
2024/01/13 00:23:34;;;;;;;;;;;;;;;6.91;40.32;100579.34;4468482;32;33790;-71
2024/01/13 00:26:02;;;;;;;;;;;;;;;7.01;40.18;100575.00;4476190;32;33591;-69
2024/01/13 00:28:29;;;;;;;;;;;;;;;6.83;40.48;100577.13;4476309;32;33996;-71
2024/01/13 00:31:06;;;;;;;;;;;;;;;6.70;40.95;100592.47;4478434;32;33246;-71
2024/01/13 00:33:35;;;;;;;;;;;;;;;6.82;40.63;100582.19;4479087;32;34227;-71
2024/01/13 00:36:03;;;;;;;;;;;;;;;6.68;40.75;100586.31;4481896;32;34090;-73
2024/01/13 00:38:31;;;;;;;;;;;;;;;6.99;40.31;100579.13;4482589;32;34336;-71
2024/01/13 00:41:06;;;;;;;;;;;;;;;6.74;40.62;100593.59;4480980;32;33164;-70
2024/01/13 00:43:35;;;;;;;;;;;;;;;7.07;40.02;100597.72;4472226;32;33870;-73
2024/01/13 00:46:03;;;;;;;;;;;;;;;6.98;40.25;100591.91;4483530;32;34312;-73
2024/01/13 00:48:30;;;;;;;;;;;;;;;6.73;40.36;100594.38;4483350;32;33872;-71
2024/01/13 00:51:11;;;;;;;;;;;;;;;7.19;39.44;100577.06;4471826;32;33500;-71
2024/01/13 00:53:41;;;;;;;;;;;;;;;7.43;38.99;100577.88;4480341;32;34108;-72
2024/01/13 00:56:09;;;;;;;;;;;;;;;7.55;38.51;100576.19;4470516;32;33983;-74
2024/01/13 00:58:37;;;;;;;;;;;;;;;6.96;39.42;100585.75;4472779;32;33480;-74
2024/01/13 01:01:12;;;;;;;;;;;;;;;7.39;39.06;100591.34;4473411;32;33767;-74
2024/01/13 01:03:42;;;;;;;;;;;;;;;7.36;38.65;100591.12;4466051;32;33913;-72
2024/01/13 01:06:09;;;;;;;;;;;;;;;7.05;39.63;100588.97;4475527;32;34791;-74
2024/01/13 01:08:37;;;;;;;;;;;;;;;7.25;39.13;100585.25;4459613;32;34433;-74
2024/01/13 01:11:07;;;;;;;;;;;;;;;7.31;39.10;100592.50;4467055;32;32582;-71
2024/01/13 01:13:35;;;;;;;;;;;;;;;7.40;38.85;100586.31;4456092;32;34953;-71
2024/01/13 01:16:03;;;;;;;;;;;;;;;7.19;38.87;100590.84;4462426;32;34697;-71
2024/01/13 01:18:31;;;;;;;;;;;;;;;7.81;38.20;100592.53;4468136;32;35019;-71
2024/01/13 01:21:12;;;;;;;;;;;;;;;7.56;38.71;100593.41;4470265;32;34258;-72
2024/01/13 01:23:40;;;;;;;;;;;;;;;7.80;37.94;100590.75;4476646;32;34156;-71
2024/01/13 01:26:07;;;;;;;;;;;;;;;7.41;38.99;100595.81;4471134;32;34555;-71
2024/01/13 01:28:35;;;;;;;;;;;;;;;6.97;39.56;100587.53;4458735;32;32853;-70
2024/01/13 01:31:04;;;;;;;;;;;;;;;7.50;38.82;100586.97;4470535;32;33121;-72
2024/01/13 01:33:32;;;;;;;;;;;;;;;7.46;38.79;100578.12;4485604;32;33868;-72
2024/01/13 01:36:00;;;;;;;;;;;;;;;7.59;38.69;100577.25;4485987;32;33839;-72
2024/01/13 01:38:27;;;;;;;;;;;;;;;7.26;39.13;100577.62;4485029;32;33779;-71
2024/01/13 01:40:57;;;;;;;;;;;;;;;7.31;39.33;100566.72;4480566;32;33464;-73
2024/01/13 01:43:24;;;;;;;;;;;;;;;7.28;39.12;100572.53;4480178;32;34929;-74
2024/01/13 01:45:52;;;;;;;;;;;;;;;7.31;39.26;100571.88;4478865;32;34638;-73
2024/01/13 01:48:24;;;;;;;;;;;;;;;6.86;39.83;100564.47;4471881;32;34809;-72
2024/01/13 01:51:07;;;;;;;;;;;;;;;7.21;39.66;100558.34;4459995;32;33419;-75
2024/01/13 01:53:35;;;;;;;;;;;;;;;7.05;39.37;100552.88;4476664;32;33806;-75
2024/01/13 01:56:04;;;;;;;;;;;;;;;7.75;38.40;100558.59;4471591;32;34862;-71
2024/01/13 01:58:31;;;;;;;;;;;;;;;7.55;38.73;100547.81;4472651;32;33802;-74
2024/01/13 02:01:02;;;;;;;;;;;;;;;8.04;37.96;100550.25;4473465;32;32204;-72
2024/01/13 02:03:30;;;;;;;;;;;;;;;7.47;38.84;100538.63;4470689;32;34793;-74
2024/01/13 02:05:58;;;;;;;;;;;;;;;7.68;38.53;100539.22;4462455;32;33514;-73
2024/01/13 02:08:26;;;;;;;;;;;;;;;7.38;39.02;100522.53;4480440;32;33827;-73
2024/01/13 02:11:06;;;;;;;;;;;;;;;7.31;38.68;100528.97;4441898;32;31861;-74
2024/01/13 02:13:33;;;;;;;;;;;;;;;7.59;38.88;100524.03;4481642;32;34107;-73
2024/01/13 02:16:01;;;;;;;;;;;;;;;7.24;39.28;100525.09;4461821;32;34238;-75
2024/01/13 02:18:28;;;;;;;;;;;;;;;7.62;38.39;100519.06;4468628;32;33948;-72
2024/01/13 02:21:05;;;;;;;;;;;;;;;7.67;38.43;100528.03;4471817;32;33356;-72
2024/01/13 02:23:34;;;;;;;;;;;;;;;7.77;38.20;100523.50;4479379;32;35029;-73
2024/01/13 02:26:02;;;;;;;;;;;;;;;8.11;37.74;100520.56;4474671;32;33412;-73
2024/01/13 02:28:29;;;;;;;;;;;;;;;8.03;37.64;100515.78;4467205;32;35393;-73
2024/01/13 02:31:14;;;;;;;;;;;;;;;8.46;37.07;100515.19;4474238;32;32833;-72
2024/01/13 02:33:42;;;;;;;;;;;;;;;8.08;37.47;100527.31;4474215;32;34067;-74
2024/01/13 02:36:10;;;;;;;;;;;;;;;8.46;36.78;100526.38;4479957;32;32967;-75
2024/01/13 02:38:38;;;;;;;;;;;;;;;8.71;36.60;100527.06;4472244;32;34963;-71
2024/01/13 02:41:05;;;;;;;;;;;;;;;8.54;36.79;100518.25;4480474;32;33554;-74
2024/01/13 02:43:34;;;;;;;;;;;;;;;8.06;37.15;100525.44;4466272;32;34035;-75
2024/01/13 02:46:02;;;;;;;;;;;;;;;8.84;36.09;100515.00;4479420;32;33974;-74
2024/01/13 02:48:33;;;;;;;;;;;;;;;8.53;36.67;100511.28;4476147;32;34175;-73
2024/01/13 02:51:08;;;;;;;;;;;;;;;8.82;36.37;100507.97;4459629;32;33485;-74
2024/01/13 02:53:36;;;;;;;;;;;;;;;8.75;36.03;100514.44;4469859;32;33628;-71
2024/01/13 02:56:03;;;;;;;;;;;;;;;8.99;35.56;100509.03;4473350;32;34146;-74
2024/01/13 02:58:31;;;;;;;;;;;;;;;8.63;36.70;100508.47;4480499;32;34115;-74
2024/01/13 03:01:10;;;;;;;;;;;;;;;8.25;36.98;100499.16;4472663;32;34020;-74
2024/01/13 03:03:38;;;;;;;;;;;;;;;8.32;37.14;100491.00;4482459;32;34318;-72
2024/01/13 03:06:07;;;;;;;;;;;;;;;8.59;36.84;100497.06;4474712;32;34373;-74
2024/01/13 03:08:35;;;;;;;;;;;;;;;8.36;36.88;100490.38;4471881;32;34739;-73
2024/01/13 03:11:09;;;;;;;;;;;;;;;8.40;36.82;100489.81;4480388;32;34092;-74
2024/01/13 03:13:37;;;;;;;;;;;;;;;8.51;36.48;100474.16;4477335;32;34587;-72
2024/01/13 03:16:08;;;;;;;;;;;;;;;7.94;37.51;100481.66;4475063;32;33713;-72
2024/01/13 03:18:36;;;;;;;;;;;;;;;8.24;37.14;100481.88;4469404;32;33226;-74
2024/01/13 03:21:08;;;;;;;;;;;;;;;8.39;36.70;100476.81;4469455;32;33392;-75
2024/01/13 03:23:36;;;;;;;;;;;;;;;8.80;36.08;100474.28;4463702;32;32381;-72
2024/01/13 03:26:04;;;;;;;;;;;;;;;8.62;36.67;100475.72;4469212;32;35050;-74
2024/01/13 03:28:32;;;;;;;;;;;;;;;8.97;36.02;100482.22;4457939;32;34367;-71
2024/01/13 03:31:09;;;;;;;;;;;;;;;8.44;36.83;100471.19;4482118;32;32963;-71
2024/01/13 03:33:38;;;;;;;;;;;;;;;8.12;37.65;100466.47;4456177;32;33704;-75
2024/01/13 03:36:07;;;;;;;;;;;;;;;8.21;37.37;100471.37;4478262;32;34897;-74
2024/01/13 03:38:34;;;;;;;;;;;;;;;8.59;36.91;100470.34;4462490;32;34579;-72
2024/01/13 03:41:10;;;;;;;;;;;;;;;8.23;37.41;100469.78;4477138;32;32934;-72
2024/01/13 03:43:37;;;;;;;;;;;;;;;8.33;37.20;100461.81;4483639;32;34842;-72
2024/01/13 03:46:05;;;;;;;;;;;;;;;8.20;37.57;100456.66;4483723;32;34959;-73
2024/01/13 03:48:32;;;;;;;;;;;;;;;8.23;37.33;100462.03;4467034;32;33765;-73
2024/01/13 03:51:00;;;;;;;;;;;;;;;8.58;36.73;100451.41;4466679;32;33501;-73
2024/01/13 03:53:31;;;;;;;;;;;;;;;8.23;37.35;100450.00;4481795;32;34628;-73
2024/01/13 03:56:00;;;;;;;;;;;;;;;8.66;36.70;100446.72;4483133;32;34694;-73
2024/01/13 03:58:27;;;;;;;;;;;;;;;8.55;36.90;100447.72;4477907;32;34035;-73
2024/01/13 04:00:54;;;;;;;;;;;;;;;8.59;36.82;100449.69;4474222;32;33019;-73
2024/01/13 04:03:22;;;;;;;;;;;;;;;8.87;36.20;100446.28;4466751;32;33399;-73
2024/01/13 04:05:50;;;;;;;;;;;;;;;8.98;36.13;100442.62;4481896;32;34301;-72
2024/01/13 04:08:18;;;;;;;;;;;;;;;8.58;36.72;100447.94;4481458;32;34126;-73
2024/01/13 04:10:45;;;;;;;;;;;;;;;8.74;36.35;100445.50;4468862;32;33155;-73
2024/01/13 04:13:13;;;;;;;;;;;;;;;8.66;36.59;100442.44;4480201;32;33993;-72
2024/01/13 04:15:41;;;;;;;;;;;;;;;8.72;36.59;100446.22;4483459;32;33920;-72
2024/01/13 04:18:08;;;;;;;;;;;;;;;9.01;36.13;100445.41;4468401;32;32558;-73
2024/01/13 04:20:38;;;;;;;;;;;;;;;8.96;35.96;100442.56;4467586;32;34152;-73
2024/01/13 04:23:05;;;;;;;;;;;;;;;8.82;36.37;100439.09;4483020;32;35105;-72
2024/01/13 04:25:35;;;;;;;;;;;;;;;8.72;36.57;100441.91;4469286;32;32324;-72
2024/01/13 04:28:03;;;;;;;;;;;;;;;8.81;36.58;100442.50;4474150;32;34099;-72
2024/01/13 04:30:30;;;;;;;;;;;;;;;8.94;36.23;100438.06;4468557;32;33788;-73
2024/01/13 04:32:58;;;;;;;;;;;;;;;8.60;36.64;100446.34;4480538;32;34193;-73
2024/01/13 04:35:27;;;;;;;;;;;;;;;8.77;36.52;100435.38;4461303;32;33951;-73
2024/01/13 04:37:54;;;;;;;;;;;;;;;8.66;36.85;100436.38;4474548;32;35130;-73
2024/01/13 04:40:22;;;;;;;;;;;;;;;8.93;36.34;100431.16;4455210;32;32919;-72
2024/01/13 04:42:49;;;;;;;;;;;;;;;9.06;36.06;100428.50;4468957;32;34979;-72
2024/01/13 04:45:16;;;;;;;;;;;;;;;8.91;36.11;100427.56;4468207;32;33860;-72
2024/01/13 04:47:44;;;;;;;;;;;;;;;8.63;37.08;100431.00;4471581;32;34663;-73
2024/01/13 04:50:12;;;;;;;;;;;;;;;8.23;37.75;100433.63;4461596;32;32683;-72
2024/01/13 04:52:39;;;;;;;;;;;;;;;8.61;37.22;100419.69;4476345;32;35051;-72
2024/01/13 04:55:07;;;;;;;;;;;;;;;8.56;37.25;100428.88;4468451;32;34109;-72
2024/01/13 04:57:34;;;;;;;;;;;;;;;8.44;37.61;100422.12;4467379;32;33856;-73
2024/01/13 05:00:01;;;;;;;;;;;;;;;8.58;37.30;100427.28;4480294;32;33869;-72
2024/01/13 05:02:29;;;;;;;;;;;;;;;8.60;37.54;100407.59;4478442;32;33825;-73
2024/01/13 05:04:57;;;;;;;;;;;;;;;8.56;37.48;100413.37;4481931;32;33955;-73
2024/01/13 05:07:25;;;;;;;;;;;;;;;9.38;35.96;100408.84;4472212;32;33631;-73
2024/01/13 05:09:52;;;;;;;;;;;;;;;8.87;36.70;100410.09;4478236;32;33882;-72
2024/01/13 05:12:19;;;;;;;;;;;;;;;8.49;37.48;100411.19;4482444;32;34613;-73
2024/01/13 05:14:46;;;;;;;;;;;;;;;8.77;36.99;100409.53;4482770;32;33677;-72
2024/01/13 05:17:14;;;;;;;;;;;;;;;8.70;37.18;100402.19;4482286;32;32780;-73
2024/01/13 05:19:41;;;;;;;;;;;;;;;8.95;36.89;100403.72;4482324;32;33544;-72
2024/01/13 05:22:09;;;;;;;;;;;;;;;9.19;36.39;100406.87;4475937;32;34740;-73
2024/01/13 05:24:36;;;;;;;;;;;;;;;9.24;36.29;100398.59;4473126;32;34787;-72
2024/01/13 05:27:04;;;;;;;;;;;;;;;8.63;37.38;100394.84;4476417;32;34081;-72
2024/01/13 05:29:31;;;;;;;;;;;;;;;8.76;37.19;100391.34;4465469;32;33319;-72
2024/01/13 05:31:59;;;;;;;;;;;;;;;8.57;37.77;100404.81;4460038;32;34867;-72
2024/01/13 05:34:26;;;;;;;;;;;;;;;8.62;37.54;100398.25;4470500;32;33632;-72
2024/01/13 05:36:54;;;;;;;;;;;;;;;8.64;37.78;100401.81;4471763;32;34723;-72
2024/01/13 05:39:21;;;;;;;;;;;;;;;7.86;38.81;100402.84;4472618;32;32285;-71
2024/01/13 05:41:48;;;;;;;;;;;;;;;7.67;39.28;100409.41;4472571;32;33968;-72
2024/01/13 05:44:16;;;;;;;;;;;;;;;7.94;39.43;100404.28;4474678;32;34884;-72
2024/01/13 05:46:43;;;;;;;;;;;;;;;8.25;38.92;100395.91;4474002;32;34787;-73
2024/01/13 05:49:10;;;;;;;;;;;;;;;8.77;37.94;100406.94;4474513;32;33143;-72
2024/01/13 05:51:38;;;;;;;;;;;;;;;8.76;38.00;100397.41;4468140;32;32504;-72
2024/01/13 05:54:06;;;;;;;;;;;;;;;8.42;38.75;100395.31;4478940;32;33778;-72
2024/01/13 05:56:33;;;;;;;;;;;;;;;8.72;38.38;100398.00;4478368;32;33928;-73
2024/01/13 05:59:00;;;;;;;;;;;;;;;8.72;38.50;100398.00;4479628;32;33601;-73
2024/01/13 06:01:28;;;;;;;;;;;;;;;8.08;39.50;100390.56;4477573;32;34998;-73
2024/01/13 06:03:58;;;;;;;;;;;;;;;7.97;39.68;100401.88;4474556;32;33231;-72
2024/01/13 06:06:26;;;;;;;;;;;;;;;7.74;40.62;100407.22;4467447;32;34034;-72
2024/01/13 06:08:53;;;;;;;;;;;;;;;7.96;40.26;100404.34;4463884;32;33285;-73
2024/01/13 06:11:21;;;;;;;;;;;;;;;7.68;40.91;100406.00;4482061;32;33974;-72
2024/01/13 06:13:48;;;;;;;;;;;;;;;7.55;41.11;100405.09;4480301;32;34569;-71
2024/01/13 06:16:15;;;;;;;;;;;;;;;7.71;40.62;100400.19;4474456;32;34595;-72
2024/01/13 06:18:43;;;;;;;;;;;;;;;7.91;40.57;100404.06;4475680;32;34094;-72
2024/01/13 06:21:10;;;;;;;;;;;;;;;7.91;40.61;100403.19;4457320;32;34341;-72
2024/01/13 06:23:37;;;;;;;;;;;;;;;7.77;41.07;100397.13;4475349;32;33836;-72
2024/01/13 06:26:05;;;;;;;;;;;;;;;8.17;40.17;100392.84;4472316;32;35235;-71
2024/01/13 06:28:32;;;;;;;;;;;;;;;8.16;40.30;100395.31;4475063;32;34226;-72
2024/01/13 06:31:01;;;;;;;;;;;;;;;7.65;41.52;100410.09;4481473;32;32869;-72
2024/01/13 06:33:28;;;;;;;;;;;;;;;7.95;40.85;100406.03;4478943;32;34156;-72
2024/01/13 06:35:57;;;;;;;;;;;;;;;8.41;39.77;100403.84;4470255;32;34152;-72
2024/01/13 06:38:24;;;;;;;;;;;;;;;8.44;40.05;100406.63;4473568;32;33217;-72
2024/01/13 06:40:52;;;;;;;;;;;;;;;8.56;39.79;100396.19;4482935;32;34460;-72
2024/01/13 06:43:19;;;;;;;;;;;;;;;8.30;40.42;100393.63;4477852;32;34134;-73
2024/01/13 06:45:46;;;;;;;;;;;;;;;8.64;39.88;100397.53;4468645;32;34172;-73
2024/01/13 06:48:13;;;;;;;;;;;;;;;8.81;39.76;100388.25;4484299;32;34008;-73
2024/01/13 06:50:42;;;;;;;;;;;;;;;9.03;39.10;100389.56;4474540;32;34286;-72
2024/01/13 06:53:21;;;;;;;;;;;;;;;9.11;38.90;100390.91;4470828;32;34076;-73
2024/01/13 06:55:48;;;;;;;;;;;;;;;8.70;39.75;100386.69;4471149;32;34098;-73
2024/01/13 06:58:17;;;;;;;;;;;;;;;8.90;39.00;100394.78;4477000;32;32962;-73
2024/01/13 07:00:44;;;;;;;;;;;;;;;9.11;38.83;100400.34;4463281;32;33949;-73
2024/01/13 07:03:12;;;;;;;;;;;;;;;9.25;38.71;100400.38;4480064;32;34229;-72
2024/01/13 07:05:39;;;;;;;;;;;;;;;8.78;41.39;100393.22;4445674;32;33203;-72
2024/01/13 07:08:08;;;;;;;;;;;;;;;8.84;39.81;100396.16;4478144;32;33732;-72
2024/01/13 07:10:36;;;;;;;;;;;;;;;8.84;39.66;100396.16;4475278;32;34126;-72
2024/01/13 07:13:03;;;;;;;;;;;;;;;9.52;38.68;100387.31;4474549;32;33748;-73
2024/01/13 07:15:31;;;;;;;;;;;;;;;9.74;37.94;100391.12;4475249;32;34081;-72
2024/01/13 07:18:00;;;;;;;;;;;;;;;9.37;38.72;100389.00;4480206;32;33145;-72
2024/01/13 07:20:27;;;;;;;;;;;;;;;9.93;37.59;100387.88;4455707;32;34824;-72
2024/01/13 07:22:55;;;;;;;;;;;;;;;10.43;36.68;100382.97;4473232;32;34094;-72
2024/01/13 07:25:22;;;;;;;;;;;;;;;9.51;38.14;100388.09;4475367;32;33928;-73
2024/01/13 07:27:50;;;;;;;;;;;;;;;9.74;38.23;100389.41;4457998;32;31787;-72
2024/01/13 07:30:18;;;;;;;;;;;;;;;9.81;38.07;100388.06;4478059;32;35045;-72
2024/01/13 07:32:46;;;;;;;;;;;;;;;9.59;38.68;100375.59;4467759;32;33616;-72
2024/01/13 07:35:14;;;;;;;;;;;;;;;9.62;40.43;100381.84;4471511;32;34936;-73
2024/01/13 07:37:43;;;;;;;;;;;;;;;9.61;39.13;100369.69;4478415;32;34165;-72
2024/01/13 07:40:10;;;;;;;;;;;;;;;9.86;38.50;100368.53;4459116;32;33934;-72
2024/01/13 07:42:41;;;;;;;;;;;;;;;10.30;37.42;100375.31;4478275;32;33574;-73
2024/01/13 07:45:08;;;;;;;;;;;;;;;9.57;38.57;100378.09;4479986;32;33803;-72
2024/01/13 07:47:36;;;;;;;;;;;;;;;10.04;37.92;100366.06;4475712;32;33201;-73
2024/01/13 07:50:03;;;;;;;;;;;;;;;9.91;38.10;100366.19;4480880;32;33620;-72
2024/01/13 07:52:31;;;;;;;;;;;;;;;9.43;39.15;100371.25;4474969;32;34405;-73
2024/01/13 07:54:58;;;;;;;;;;;;;;;9.01;40.14;100378.22;4442722;32;780544;-73
2024/01/13 07:57:27;;;;;;;;;;;;;;;9.79;38.88;100374.16;4478342;32;33584;-73
2024/01/13 07:59:55;;;;;;;;;;;;;;;10.05;38.20;100367.88;4469219;32;34185;-73
2024/01/13 08:02:22;;;;;;;;;;;;;;;10.01;38.18;100374.56;4466820;32;33915;-72
2024/01/13 08:04:50;;;;;;;;;;;;;;;9.67;38.67;100373.47;4474073;32;34209;-71
2024/01/13 08:07:19;;;;;;;;;;;;;;;9.58;38.87;100364.38;4473225;32;33129;-73
2024/01/13 08:09:47;;;;;;;;;;;;;;;8.79;40.12;100369.19;4480129;32;34983;-72
2024/01/13 08:12:15;;;;;;;;;;;;;;;9.41;39.32;100359.91;4479777;32;33819;-73
2024/01/13 08:14:42;;;;;;;;;;;;;;;9.36;39.65;100361.34;4474193;32;34802;-72
2024/01/13 08:17:09;;;;;;;;;;;;;;;8.62;41.06;100362.09;4482761;32;33906;-73
2024/01/13 08:19:37;;;;;;;;;;;;;;;8.63;41.95;100364.78;4463640;32;33534;-72
2024/01/13 08:22:06;;;;;;;;;;;;;;;8.65;41.76;100368.34;4473952;32;34144;-72
2024/01/13 08:24:33;;;;;;;;;;;;;;;9.25;40.11;100373.63;4461504;32;34210;-72
2024/01/13 08:27:01;;;;;;;;;;;;;;;9.09;40.47;100371.81;4458724;32;33128;-72
2024/01/13 08:29:29;;;;;;;;;;;;;;;9.41;39.56;100370.25;4458993;32;34042;-73
2024/01/13 08:31:56;;;;;;;;;;;;;;;8.33;41.41;100373.16;4463928;32;33731;-73
2024/01/13 08:34:24;;;;;;;;;;;;;;;8.94;40.92;100374.38;4470080;32;34135;-72
2024/01/13 08:36:52;;;;;;;;;;;;;;;9.20;40.59;100368.19;4462670;32;31350;-73
2024/01/13 08:39:19;;;;;;;;;;;;;;;9.04;40.85;100368.97;4451685;32;34255;-72
2024/01/13 08:41:47;;;;;;;;;;;;;;;9.02;40.21;100364.50;4472821;32;33718;-72
2024/01/13 08:44:15;;;;;;;;;;;;;;;8.95;40.91;100360.66;4447365;32;34008;-73
2024/01/13 08:46:43;;;;;;;;;;;;;;;8.88;41.20;100357.62;4482173;32;33325;-73
2024/01/13 08:49:10;;;;;;;;;;;;;;;8.61;41.66;100362.87;4479982;32;34981;-72
2024/01/13 08:51:38;;;;;;;;;;;;;;;9.15;40.38;100360.97;4481728;32;34740;-72
2024/01/13 08:54:06;;;;;;;;;;;;;;;9.09;40.77;100361.47;4478249;32;34329;-72
2024/01/13 08:56:36;;;;;;;;;;;;;;;8.97;40.69;100360.75;4476440;32;33193;-72
2024/01/13 08:59:06;;;;;;;;;;;;;;;9.49;39.88;100355.19;4474636;32;33253;-72
2024/01/13 09:01:34;;;;;;;;;;;;;;;9.43;39.75;100373.81;4474422;32;33696;-72
2024/01/13 09:04:09;;;;;;;;;;;;;;;9.11;40.68;100365.03;4483130;32;34536;-72
2024/01/13 09:06:38;;;;;;;;;;;;;;;9.61;39.49;100361.94;4462356;32;31250;-72
2024/01/13 09:09:05;;;;;;;;;;;;;;;9.04;40.74;100363.81;4474789;32;33836;-72
2024/01/13 09:11:34;;;;;;;;;;;;;;;9.60;39.82;100359.25;4460041;32;33828;-72
2024/01/13 09:14:10;;;;;;;;;;;;;;;9.45;39.83;100351.53;4476346;32;34699;-72
2024/01/13 09:16:40;;;;;;;;;;;;;;;8.92;40.43;100373.38;4462060;32;35327;-72
2024/01/13 09:19:08;;;;;;;;;;;;;;;9.05;40.71;100364.69;4478044;32;33491;-72
2024/01/13 09:21:37;;;;;;;;;;;;;;;8.94;40.88;100374.38;4467452;32;31897;-71
2024/01/13 09:24:10;;;;;;;;;;;;;;;9.58;39.19;100378.97;4472088;32;34023;-70
2024/01/13 09:26:42;;;;;;;;;;;;;;;8.95;40.14;100367.53;4458923;32;33016;-70
2024/01/13 09:29:15;;;;;;;;;;;;;;;9.34;39.31;100383.63;4481365;32;34030;-70
2024/01/13 09:31:44;;;;;;;;;;;;;;;9.70;38.36;100378.81;4482820;32;34189;-70
2024/01/13 09:34:11;;;;;;;;;;;;;;;9.27;39.42;100376.31;4458406;32;33846;-71
2024/01/13 09:36:44;;;;;;;;;;;;;;;9.44;39.05;100370.41;4478548;32;33815;-70
2024/01/13 09:39:18;;;;;;;;;;;;;;;9.48;38.77;100361.16;4470744;32;35361;-71
2024/01/13 09:41:46;;;;;;;;;;;;;;;9.17;39.36;100361.94;4475493;32;34191;-70
2024/01/13 09:44:14;;;;;;;;;;;;;;;9.06;39.29;100366.50;4472142;32;34481;-71
2024/01/13 09:46:42;;;;;;;;;;;;;;;9.04;40.02;100352.59;4477732;32;33251;-70
2024/01/13 09:49:12;;;;;;;;;;;;;;;9.15;39.85;100350.62;4478411;32;34119;-70
2024/01/13 09:51:40;;;;;;;;;;;;;;;9.58;38.74;100348.84;4481303;32;34804;-70
2024/01/13 09:54:11;;;;;;;;;;;;;;;8.87;40.09;100342.94;4483908;32;34120;-70
2024/01/13 09:56:42;;;;;;;;;;;;;;;9.32;39.09;100334.41;4485508;32;33360;-70
2024/01/13 09:59:09;;;;;;;;;;;;;;;9.15;39.54;100329.94;4456934;32;33250;-70
2024/01/13 10:01:36;;;;;;;;;;;;;;;8.66;40.63;100327.91;4483700;32;34020;-70
2024/01/13 10:04:07;;;;;;;;;;;;;;;9.21;39.51;100328.63;4469182;32;34496;-70
2024/01/13 10:06:35;;;;;;;;;;;;;;;9.33;39.33;100320.69;4484796;32;32786;-70
2024/01/13 10:09:03;;;;;;;;;;;;;;;8.36;40.59;100327.75;4433221;32;32599;-70
2024/01/13 10:11:49;;;;;;;;;;;;;;;9.35;39.43;100320.75;4474490;32;34632;-70
2024/01/13 10:14:17;;;;;;;;;;;;;;;9.42;39.04;100317.72;4460268;32;34008;-70
2024/01/13 10:16:44;;;;;;;;;;;;;;;10.01;37.97;100320.22;4472851;32;33087;-70
2024/01/13 10:19:11;;;;;;;;;;;;;;;9.39;38.96;100327.91;4467030;32;34880;-70
2024/01/13 10:21:39;;;;;;;;;;;;;;;9.15;39.81;100317.03;4476413;32;33996;-70
2024/01/13 10:24:07;;;;;;;;;;;;;;;9.29;39.55;100315.22;4479118;32;34751;-70
2024/01/13 10:26:35;;;;;;;;;;;;;;;9.47;39.18;100318.91;4484846;32;33703;-70
2024/01/13 10:29:03;;;;;;;;;;;;;;;9.28;39.50;100316.06;4476576;32;34165;-70
2024/01/13 10:31:33;;;;;;;;;;;;;;;10.14;37.76;100315.69;4484783;32;34803;-70
2024/01/13 10:34:08;;;;;;;;;;;;;;;9.87;37.89;100315.97;4469951;32;33595;-70
2024/01/13 10:36:37;;;;;;;;;;;;;;;9.60;39.03;100310.12;4464607;32;33864;-70
2024/01/13 10:39:05;;;;;;;;;;;;;;;8.98;39.50;100313.44;4453568;32;32510;-70
2024/01/13 10:41:32;;;;;;;;;;;;;;;9.77;38.42;100303.31;4482126;32;34129;-70
2024/01/13 10:44:01;;;;;;;;;;;;;;;10.04;37.66;100297.09;4455469;32;32326;-70
2024/01/13 10:46:28;;;;;;;;;;;;;;;9.99;37.90;100295.94;4470398;32;32816;-70
2024/01/13 10:48:59;;;;;;;;;;;;;;;9.73;38.55;100296.19;4484492;32;34058;-71
2024/01/13 10:51:42;;;;;;;;;;;;;;;9.73;38.48;100291.03;4470204;32;33164;-70
2024/01/13 10:54:10;;;;;;;;;;;;;;;9.92;37.87;100293.81;4469495;32;34258;-71
2024/01/13 10:56:38;;;;;;;;;;;;;;;10.24;37.09;100287.81;4462773;32;33418;-71
2024/01/13 10:59:05;;;;;;;;;;;;;;;9.46;38.51;100275.72;4467801;32;34197;-71
2024/01/13 11:01:32;;;;;;;;;;;;;;;9.51;39.21;100274.31;4461622;32;33801;-70
2024/01/13 11:04:01;;;;;;;;;;;;;;;9.52;38.82;100281.28;4475877;32;34240;-71
2024/01/13 11:06:29;;;;;;;;;;;;;;;10.10;37.74;100277.50;4467804;32;33372;-71
2024/01/13 11:08:58;;;;;;;;;;;;;;;9.90;37.62;100279.91;4475766;32;33890;-70
2024/01/13 11:11:26;;;;;;;;;;;;;;;9.89;38.19;100275.56;4479981;32;34034;-71
2024/01/13 11:14:06;;;;;;;;;;;;;;;9.97;38.29;100270.81;4461523;32;35232;-71
2024/01/13 11:16:34;;;;;;;;;;;;;;;10.34;37.11;100250.37;4475347;32;33285;-71
2024/01/13 11:19:01;;;;;;;;;;;;;;;9.92;37.67;100267.94;4463216;32;34871;-71
2024/01/13 11:21:30;;;;;;;;;;;;;;;9.24;39.00;100253.81;4479406;32;34183;-71
2024/01/13 11:24:15;;;;;;;;;;;;;;;9.48;38.72;100253.44;4463461;32;34707;-71
2024/01/13 11:26:48;;;;;;;;;;;;;;;10.10;37.44;100249.97;4484800;32;34056;-72
2024/01/13 11:29:26;;;;;;;;;;;;;;;10.26;37.17;100249.06;4484611;32;34111;-71
2024/01/13 11:31:58;;;;;;;;;;;;;;;9.89;37.81;100241.91;4484450;32;34488;-71
2024/01/13 11:34:29;;;;;;;;;;;;;;;9.93;37.73;100243.84;4475687;32;34076;-72
2024/01/13 11:36:58;;;;;;;;;;;;;;;9.96;38.04;100246.59;4485067;32;33376;-72
2024/01/13 11:39:25;;;;;;;;;;;;;;;10.07;37.75;100241.13;4463501;32;34429;-72
2024/01/13 11:41:55;;;;;;;;;;;;;;;9.95;38.16;100236.19;4476411;32;34628;-72
2024/01/13 11:44:23;;;;;;;;;;;;;;;10.15;37.39;100237.25;4460845;32;33276;-72
2024/01/13 11:47:06;;;;;;;;;;;;;;;9.82;38.09;100224.28;4467234;32;32634;-72
2024/01/13 11:49:34;;;;;;;;;;;;;;;9.63;38.84;100217.19;4470068;32;33806;-73
2024/01/13 11:52:02;;;;;;;;;;;;;;;10.29;38.39;100210.37;4483334;32;33958;-73
2024/01/13 11:54:30;;;;;;;;;;;;;;;9.87;38.41;100202.13;4478051;32;34719;-73
2024/01/13 11:56:59;;;;;;;;;;;;;;;9.54;38.67;100204.66;4450515;32;33577;-73
2024/01/13 11:59:26;;;;;;;;;;;;;;;9.81;38.15;100197.50;4475202;32;34268;-72
2024/01/13 12:01:54;;;;;;;;;;;;;;;10.45;36.55;100193.06;4469890;32;34247;-73
2024/01/13 12:04:24;;;;;;;;;;;;;;;10.39;36.51;100189.37;4469410;32;34949;-73
2024/01/13 12:06:53;;;;;;;;;;;;;;;10.00;36.99;100198.47;4443378;32;32652;-73
2024/01/13 12:09:24;;;;;;;;;;;;;;;9.53;37.74;100189.06;4470286;32;35073;-74
2024/01/13 12:11:53;;;;;;;;;;;;;;;9.64;37.56;100188.84;4471420;32;33965;-74
2024/01/13 12:14:27;;;;;;;;;;;;;;;9.77;37.29;100173.97;4469978;32;35051;-74
2024/01/13 12:16:55;;;;;;;;;;;;;;;9.46;38.02;100174.88;4468797;32;33328;-74
2024/01/13 12:19:23;;;;;;;;;;;;;;;9.46;38.17;100174.88;4463690;32;34926;-73
2024/01/13 12:21:51;;;;;;;;;;;;;;;10.09;36.39;100167.03;4466792;32;35019;-73
2024/01/13 12:24:26;;;;;;;;;;;;;;;9.49;37.54;100177.66;4469443;32;33900;-74
2024/01/13 12:26:54;;;;;;;;;;;;;;;9.54;37.86;100168.44;4481733;32;32871;-74
2024/01/13 12:29:29;;;;;;;;;;;;;;;9.64;37.74;100162.09;4466480;32;33933;-74
2024/01/13 12:32:00;;;;;;;;;;;;;;;10.17;37.44;100150.19;4469443;32;34111;-74
2024/01/13 12:34:28;;;;;;;;;;;;;;;9.85;37.43;100162.34;4481995;32;34549;-74
2024/01/13 12:36:57;;;;;;;;;;;;;;;10.25;36.61;100156.66;4462517;32;33792;-75
2024/01/13 12:39:25;;;;;;;;;;;;;;;9.94;37.11;100165.41;4480510;32;34479;-76
2024/01/13 12:41:53;;;;;;;;;;;;;;;10.72;35.67;100155.63;4483514;32;33992;-77
2024/01/13 12:44:24;;;;;;;;;;;;;;;10.94;35.35;100151.50;4469114;32;33211;-78
2024/01/13 12:46:55;;;;;;;;;;;;;;;10.75;35.66;100153.19;4472888;32;33776;-77
2024/01/13 12:49:23;;;;;;;;;;;;;;;10.15;36.71;100146.66;4474829;32;34948;-78
2024/01/13 12:51:51;;;;;;;;;;;;;;;10.16;36.71;100148.41;4469509;32;34219;-79
2024/01/13 12:54:19;;;;;;;;;;;;;;;9.72;38.20;100153.03;4483832;32;33976;-76